sensor_id;sensor_type;location;lat;lon;timestamp;P1;durP1;ratioP1;P2;durP2;ratioP2
6452;SDS011;3259;51.080;13.712;2023-08-12T00:02:01;2.60;;;2.25;;
6452;SDS011;3259;51.080;13.712;2023-08-12T00:04:50;4.47;;;2.20;;
6452;SDS011;3259;51.080;13.712;2023-08-12T00:07:39;2.70;;;2.50;;
6452;SDS011;3259;51.080;13.712;2023-08-12T00:10:29;4.00;;;2.72;;
6452;SDS011;3259;51.080;13.712;2023-08-12T00:13:17;2.88;;;2.10;;
6452;SDS011;3259;51.080;13.712;2023-08-12T00:16:07;4.95;;;2.30;;
6452;SDS011;3259;51.080;13.712;2023-08-12T00:18:57;4.32;;;2.67;;
6452;SDS011;3259;51.080;13.712;2023-08-12T00:21:47;3.35;;;2.53;;
6452;SDS011;3259;51.080;13.712;2023-08-12T00:24:37;4.75;;;2.60;;
6452;SDS011;3259;51.080;13.712;2023-08-12T00:27:26;3.83;;;2.50;;
6452;SDS011;3259;51.080;13.712;2023-08-12T00:30:15;3.75;;;2.30;;
6452;SDS011;3259;51.080;13.712;2023-08-12T00:33:04;3.00;;;2.70;;
6452;SDS011;3259;51.080;13.712;2023-08-12T00:35:54;4.53;;;3.13;;
6452;SDS011;3259;51.080;13.712;2023-08-12T00:38:43;3.85;;;2.78;;
6452;SDS011;3259;51.080;13.712;2023-08-12T00:41:32;5.40;;;2.72;;
6452;SDS011;3259;51.080;13.712;2023-08-12T00:44:20;3.20;;;2.90;;
6452;SDS011;3259;51.080;13.712;2023-08-12T00:47:09;4.80;;;2.88;;
6452;SDS011;3259;51.080;13.712;2023-08-12T00:49:58;3.47;;;3.17;;
6452;SDS011;3259;51.080;13.712;2023-08-12T00:52:49;3.10;;;2.42;;
6452;SDS011;3259;51.080;13.712;2023-08-12T00:55:38;3.03;;;2.70;;
6452;SDS011;3259;51.080;13.712;2023-08-12T00:58:29;3.38;;;3.08;;
6452;SDS011;3259;51.080;13.712;2023-08-12T01:01:19;7.20;;;3.08;;
6452;SDS011;3259;51.080;13.712;2023-08-12T01:04:09;4.82;;;2.78;;
6452;SDS011;3259;51.080;13.712;2023-08-12T01:06:58;3.40;;;2.97;;
6452;SDS011;3259;51.080;13.712;2023-08-12T01:09:48;4.18;;;2.58;;
6452;SDS011;3259;51.080;13.712;2023-08-12T01:12:37;5.13;;;2.97;;
6452;SDS011;3259;51.080;13.712;2023-08-12T01:15:32;5.20;;;3.10;;
6452;SDS011;3259;51.080;13.712;2023-08-12T01:18:22;8.68;;;2.90;;
6452;SDS011;3259;51.080;13.712;2023-08-12T01:21:15;2.60;;;2.45;;
6452;SDS011;3259;51.080;13.712;2023-08-12T01:24:06;4.05;;;2.25;;
6452;SDS011;3259;51.080;13.712;2023-08-12T01:26:55;5.20;;;2.97;;
6452;SDS011;3259;51.080;13.712;2023-08-12T01:29:45;3.97;;;2.45;;
6452;SDS011;3259;51.080;13.712;2023-08-12T01:32:37;3.63;;;3.10;;
6452;SDS011;3259;51.080;13.712;2023-08-12T01:35:30;4.30;;;2.38;;
6452;SDS011;3259;51.080;13.712;2023-08-12T01:38:23;5.38;;;2.22;;
6452;SDS011;3259;51.080;13.712;2023-08-12T01:41:16;3.40;;;2.47;;
6452;SDS011;3259;51.080;13.712;2023-08-12T01:44:06;3.40;;;2.47;;
6452;SDS011;3259;51.080;13.712;2023-08-12T01:46:55;3.35;;;2.85;;
6452;SDS011;3259;51.080;13.712;2023-08-12T01:49:44;4.10;;;2.80;;
6452;SDS011;3259;51.080;13.712;2023-08-12T01:52:33;7.35;;;2.85;;
6452;SDS011;3259;51.080;13.712;2023-08-12T01:55:22;6.75;;;2.80;;
6452;SDS011;3259;51.080;13.712;2023-08-12T01:58:12;5.35;;;2.30;;
6452;SDS011;3259;51.080;13.712;2023-08-12T02:01:01;3.15;;;1.88;;
6452;SDS011;3259;51.080;13.712;2023-08-12T02:03:50;6.10;;;2.90;;
6452;SDS011;3259;51.080;13.712;2023-08-12T02:06:38;4.22;;;2.55;;
6452;SDS011;3259;51.080;13.712;2023-08-12T02:09:28;2.75;;;2.20;;
6452;SDS011;3259;51.080;13.712;2023-08-12T02:12:17;2.65;;;2.10;;
6452;SDS011;3259;51.080;13.712;2023-08-12T02:15:07;6.30;;;2.13;;
6452;SDS011;3259;51.080;13.712;2023-08-12T02:17:57;3.30;;;2.22;;
6452;SDS011;3259;51.080;13.712;2023-08-12T02:20:46;2.60;;;2.40;;
6452;SDS011;3259;51.080;13.712;2023-08-12T02:23:35;4.50;;;2.17;;
6452;SDS011;3259;51.080;13.712;2023-08-12T02:26:24;3.45;;;2.70;;
6452;SDS011;3259;51.080;13.712;2023-08-12T02:29:13;3.10;;;2.50;;
6452;SDS011;3259;51.080;13.712;2023-08-12T02:32:03;4.30;;;1.88;;
6452;SDS011;3259;51.080;13.712;2023-08-12T02:34:52;2.80;;;2.60;;
6452;SDS011;3259;51.080;13.712;2023-08-12T02:37:41;8.75;;;2.28;;
6452;SDS011;3259;51.080;13.712;2023-08-12T02:40:29;2.63;;;2.28;;
6452;SDS011;3259;51.080;13.712;2023-08-12T02:43:18;3.40;;;2.60;;
6452;SDS011;3259;51.080;13.712;2023-08-12T02:46:07;6.95;;;2.53;;
6452;SDS011;3259;51.080;13.712;2023-08-12T02:48:57;2.60;;;2.35;;
6452;SDS011;3259;51.080;13.712;2023-08-12T02:51:46;6.07;;;2.33;;
6452;SDS011;3259;51.080;13.712;2023-08-12T02:54:35;2.97;;;2.33;;
6452;SDS011;3259;51.080;13.712;2023-08-12T02:57:23;2.25;;;2.08;;
6452;SDS011;3259;51.080;13.712;2023-08-12T03:00:12;2.97;;;2.38;;
6452;SDS011;3259;51.080;13.712;2023-08-12T03:03:01;7.22;;;2.78;;
6452;SDS011;3259;51.080;13.712;2023-08-12T03:05:52;4.95;;;2.60;;
6452;SDS011;3259;51.080;13.712;2023-08-12T03:08:41;2.25;;;2.05;;
6452;SDS011;3259;51.080;13.712;2023-08-12T03:11:30;6.28;;;2.45;;
6452;SDS011;3259;51.080;13.712;2023-08-12T03:14:18;4.38;;;3.15;;
6452;SDS011;3259;51.080;13.712;2023-08-12T03:17:07;5.20;;;2.08;;
6452;SDS011;3259;51.080;13.712;2023-08-12T03:19:56;3.10;;;2.85;;
6452;SDS011;3259;51.080;13.712;2023-08-12T03:22:47;1.92;;;1.80;;
6452;SDS011;3259;51.080;13.712;2023-08-12T03:25:36;4.28;;;2.40;;
6452;SDS011;3259;51.080;13.712;2023-08-12T03:28:25;5.38;;;2.70;;
6452;SDS011;3259;51.080;13.712;2023-08-12T03:31:14;3.85;;;2.50;;
6452;SDS011;3259;51.080;13.712;2023-08-12T03:34:03;2.40;;;2.20;;
6452;SDS011;3259;51.080;13.712;2023-08-12T03:36:51;3.17;;;1.90;;
6452;SDS011;3259;51.080;13.712;2023-08-12T03:39:41;3.15;;;1.85;;
6452;SDS011;3259;51.080;13.712;2023-08-12T03:42:30;2.72;;;1.98;;
6452;SDS011;3259;51.080;13.712;2023-08-12T03:45:19;3.08;;;2.60;;
6452;SDS011;3259;51.080;13.712;2023-08-12T03:48:08;3.08;;;2.15;;
6452;SDS011;3259;51.080;13.712;2023-08-12T03:50:57;4.13;;;2.10;;
6452;SDS011;3259;51.080;13.712;2023-08-12T03:53:46;4.55;;;2.35;;
6452;SDS011;3259;51.080;13.712;2023-08-12T03:56:36;7.63;;;2.55;;
6452;SDS011;3259;51.080;13.712;2023-08-12T03:59:25;7.85;;;2.83;;
6452;SDS011;3259;51.080;13.712;2023-08-12T04:02:14;4.53;;;2.70;;
6452;SDS011;3259;51.080;13.712;2023-08-12T04:05:03;3.28;;;2.28;;
6452;SDS011;3259;51.080;13.712;2023-08-12T04:07:52;4.18;;;2.05;;
6452;SDS011;3259;51.080;13.712;2023-08-12T04:10:43;6.95;;;2.83;;
6452;SDS011;3259;51.080;13.712;2023-08-12T04:13:35;4.43;;;2.13;;
6452;SDS011;3259;51.080;13.712;2023-08-12T04:16:24;3.17;;;2.45;;
6452;SDS011;3259;51.080;13.712;2023-08-12T04:19:12;4.78;;;2.00;;
6452;SDS011;3259;51.080;13.712;2023-08-12T04:22:01;4.10;;;2.53;;
6452;SDS011;3259;51.080;13.712;2023-08-12T04:24:50;2.38;;;1.95;;
6452;SDS011;3259;51.080;13.712;2023-08-12T04:27:39;2.90;;;2.63;;
6452;SDS011;3259;51.080;13.712;2023-08-12T04:30:29;3.25;;;2.63;;
6452;SDS011;3259;51.080;13.712;2023-08-12T04:33:18;2.88;;;2.47;;
6452;SDS011;3259;51.080;13.712;2023-08-12T04:36:07;5.57;;;2.20;;
6452;SDS011;3259;51.080;13.712;2023-08-12T04:38:56;4.18;;;2.03;;
6452;SDS011;3259;51.080;13.712;2023-08-12T04:41:45;2.72;;;2.10;;
6452;SDS011;3259;51.080;13.712;2023-08-12T04:44:33;4.72;;;2.20;;
6452;SDS011;3259;51.080;13.712;2023-08-12T04:47:24;5.28;;;2.75;;
6452;SDS011;3259;51.080;13.712;2023-08-12T04:50:15;3.22;;;2.47;;
6452;SDS011;3259;51.080;13.712;2023-08-12T04:53:04;6.88;;;3.20;;
6452;SDS011;3259;51.080;13.712;2023-08-12T04:55:54;2.67;;;2.40;;
6452;SDS011;3259;51.080;13.712;2023-08-12T04:58:43;3.08;;;2.42;;
6452;SDS011;3259;51.080;13.712;2023-08-12T05:01:32;2.25;;;1.98;;
6452;SDS011;3259;51.080;13.712;2023-08-12T05:04:22;3.95;;;2.80;;
6452;SDS011;3259;51.080;13.712;2023-08-12T05:07:11;3.55;;;2.40;;
6452;SDS011;3259;51.080;13.712;2023-08-12T05:09:59;2.85;;;2.47;;
6452;SDS011;3259;51.080;13.712;2023-08-12T05:12:48;4.20;;;2.40;;
6452;SDS011;3259;51.080;13.712;2023-08-12T05:15:38;3.00;;;2.50;;
6452;SDS011;3259;51.080;13.712;2023-08-12T05:18:27;2.05;;;1.92;;
6452;SDS011;3259;51.080;13.712;2023-08-12T05:21:17;2.58;;;2.15;;
6452;SDS011;3259;51.080;13.712;2023-08-12T05:24:06;2.50;;;2.20;;
6452;SDS011;3259;51.080;13.712;2023-08-12T05:26:58;2.40;;;2.20;;
6452;SDS011;3259;51.080;13.712;2023-08-12T05:29:46;3.72;;;2.42;;
6452;SDS011;3259;51.080;13.712;2023-08-12T05:32:35;2.53;;;2.13;;
6452;SDS011;3259;51.080;13.712;2023-08-12T05:35:24;3.20;;;2.42;;
6452;SDS011;3259;51.080;13.712;2023-08-12T05:38:15;2.22;;;2.05;;
6452;SDS011;3259;51.080;13.712;2023-08-12T05:41:04;4.22;;;2.20;;
6452;SDS011;3259;51.080;13.712;2023-08-12T05:43:55;1.88;;;1.77;;
6452;SDS011;3259;51.080;13.712;2023-08-12T05:46:43;2.35;;;2.00;;
6452;SDS011;3259;51.080;13.712;2023-08-12T05:49:32;2.10;;;1.90;;
6452;SDS011;3259;51.080;13.712;2023-08-12T05:52:21;5.78;;;2.10;;
6452;SDS011;3259;51.080;13.712;2023-08-12T05:55:11;4.50;;;2.03;;
6452;SDS011;3259;51.080;13.712;2023-08-12T05:58:00;7.18;;;2.42;;
6452;SDS011;3259;51.080;13.712;2023-08-12T06:00:48;4.10;;;2.15;;
6452;SDS011;3259;51.080;13.712;2023-08-12T06:03:37;2.40;;;2.20;;
6452;SDS011;3259;51.080;13.712;2023-08-12T06:06:26;4.75;;;1.90;;
6452;SDS011;3259;51.080;13.712;2023-08-12T06:09:15;3.80;;;2.03;;
6452;SDS011;3259;51.080;13.712;2023-08-12T06:12:05;2.88;;;1.80;;
6452;SDS011;3259;51.080;13.712;2023-08-12T06:14:55;5.55;;;2.22;;
6452;SDS011;3259;51.080;13.712;2023-08-12T06:17:44;2.08;;;1.58;;
6452;SDS011;3259;51.080;13.712;2023-08-12T06:20:33;3.67;;;1.98;;
6452;SDS011;3259;51.080;13.712;2023-08-12T06:23:22;6.78;;;1.88;;
6452;SDS011;3259;51.080;13.712;2023-08-12T06:26:13;2.35;;;1.95;;
6452;SDS011;3259;51.080;13.712;2023-08-12T06:29:03;2.33;;;2.08;;
6452;SDS011;3259;51.080;13.712;2023-08-12T06:31:52;2.35;;;1.50;;
6452;SDS011;3259;51.080;13.712;2023-08-12T06:34:41;2.03;;;1.92;;
6452;SDS011;3259;51.080;13.712;2023-08-12T06:37:30;4.20;;;1.58;;
6452;SDS011;3259;51.080;13.712;2023-08-12T06:40:19;6.55;;;2.03;;
6452;SDS011;3259;51.080;13.712;2023-08-12T06:43:08;5.05;;;1.70;;
6452;SDS011;3259;51.080;13.712;2023-08-12T06:46:01;1.90;;;1.77;;
6452;SDS011;3259;51.080;13.712;2023-08-12T06:48:50;3.85;;;2.15;;
6452;SDS011;3259;51.080;13.712;2023-08-12T06:51:39;4.05;;;2.22;;
6452;SDS011;3259;51.080;13.712;2023-08-12T06:54:27;5.63;;;2.30;;
6452;SDS011;3259;51.080;13.712;2023-08-12T06:57:16;1.70;;;1.60;;
6452;SDS011;3259;51.080;13.712;2023-08-12T07:00:05;5.38;;;2.35;;
6452;SDS011;3259;51.080;13.712;2023-08-12T07:02:56;4.82;;;1.45;;
6452;SDS011;3259;51.080;13.712;2023-08-12T07:05:45;3.47;;;2.33;;
6452;SDS011;3259;51.080;13.712;2023-08-12T07:08:34;2.03;;;1.85;;
6452;SDS011;3259;51.080;13.712;2023-08-12T07:11:23;3.10;;;1.80;;
6452;SDS011;3259;51.080;13.712;2023-08-12T07:14:11;5.13;;;2.08;;
6452;SDS011;3259;51.080;13.712;2023-08-12T07:17:00;3.88;;;2.13;;
6452;SDS011;3259;51.080;13.712;2023-08-12T07:19:50;2.97;;;2.40;;
6452;SDS011;3259;51.080;13.712;2023-08-12T07:22:39;2.92;;;2.20;;
6452;SDS011;3259;51.080;13.712;2023-08-12T07:25:28;2.80;;;1.77;;
6452;SDS011;3259;51.080;13.712;2023-08-12T07:28:16;1.85;;;1.75;;
6452;SDS011;3259;51.080;13.712;2023-08-12T07:31:05;5.38;;;2.45;;
6452;SDS011;3259;51.080;13.712;2023-08-12T07:33:54;4.82;;;2.40;;
6452;SDS011;3259;51.080;13.712;2023-08-12T07:36:44;5.65;;;2.00;;
6452;SDS011;3259;51.080;13.712;2023-08-12T07:39:33;1.90;;;1.80;;
6452;SDS011;3259;51.080;13.712;2023-08-12T07:42:22;2.47;;;1.80;;
6452;SDS011;3259;51.080;13.712;2023-08-12T07:45:11;4.90;;;1.95;;
6452;SDS011;3259;51.080;13.712;2023-08-12T07:47:59;4.03;;;2.15;;
6452;SDS011;3259;51.080;13.712;2023-08-12T07:50:54;5.22;;;2.05;;
6452;SDS011;3259;51.080;13.712;2023-08-12T07:53:44;2.42;;;2.05;;
6452;SDS011;3259;51.080;13.712;2023-08-12T07:56:33;2.60;;;2.33;;
6452;SDS011;3259;51.080;13.712;2023-08-12T07:59:22;4.45;;;2.08;;
6452;SDS011;3259;51.080;13.712;2023-08-12T08:02:12;3.05;;;1.95;;
6452;SDS011;3259;51.080;13.712;2023-08-12T08:05:01;3.53;;;2.22;;
6452;SDS011;3259;51.080;13.712;2023-08-12T08:07:50;4.00;;;1.88;;
6452;SDS011;3259;51.080;13.712;2023-08-12T08:10:40;2.10;;;1.80;;
6452;SDS011;3259;51.080;13.712;2023-08-12T08:13:29;3.63;;;2.30;;
6452;SDS011;3259;51.080;13.712;2023-08-12T08:16:18;6.72;;;2.63;;
6452;SDS011;3259;51.080;13.712;2023-08-12T08:19:06;2.33;;;2.13;;
6452;SDS011;3259;51.080;13.712;2023-08-12T08:21:59;7.82;;;2.22;;
6452;SDS011;3259;51.080;13.712;2023-08-12T08:24:47;8.50;;;2.10;;
6452;SDS011;3259;51.080;13.712;2023-08-12T08:27:38;3.72;;;2.38;;
6452;SDS011;3259;51.080;13.712;2023-08-12T08:30:30;4.80;;;2.40;;
6452;SDS011;3259;51.080;13.712;2023-08-12T08:33:19;4.40;;;2.30;;
6452;SDS011;3259;51.080;13.712;2023-08-12T08:36:07;2.75;;;1.85;;
6452;SDS011;3259;51.080;13.712;2023-08-12T08:38:56;9.20;;;2.20;;
6452;SDS011;3259;51.080;13.712;2023-08-12T08:41:45;6.57;;;1.70;;
6452;SDS011;3259;51.080;13.712;2023-08-12T08:44:37;2.33;;;1.95;;
6452;SDS011;3259;51.080;13.712;2023-08-12T08:47:29;1.88;;;1.65;;
6452;SDS011;3259;51.080;13.712;2023-08-12T08:50:19;1.75;;;1.65;;
6452;SDS011;3259;51.080;13.712;2023-08-12T08:53:09;3.17;;;1.85;;
6452;SDS011;3259;51.080;13.712;2023-08-12T08:55:57;2.38;;;1.80;;
6452;SDS011;3259;51.080;13.712;2023-08-12T08:58:47;3.42;;;1.70;;
6452;SDS011;3259;51.080;13.712;2023-08-12T09:04:38;5.13;;;2.00;;
6452;SDS011;3259;51.080;13.712;2023-08-12T09:07:27;2.03;;;1.90;;
6452;SDS011;3259;51.080;13.712;2023-08-12T09:10:17;1.85;;;1.60;;
6452;SDS011;3259;51.080;13.712;2023-08-12T09:13:09;1.70;;;1.55;;
6452;SDS011;3259;51.080;13.712;2023-08-12T09:15:57;2.88;;;1.45;;
6452;SDS011;3259;51.080;13.712;2023-08-12T09:18:49;4.75;;;1.70;;
6452;SDS011;3259;51.080;13.712;2023-08-12T09:21:43;1.65;;;1.42;;
6452;SDS011;3259;51.080;13.712;2023-08-12T09:24:32;2.10;;;1.50;;
6452;SDS011;3259;51.080;13.712;2023-08-12T09:27:20;2.00;;;1.60;;
6452;SDS011;3259;51.080;13.712;2023-08-12T09:30:09;4.68;;;1.75;;
6452;SDS011;3259;51.080;13.712;2023-08-12T09:33:00;3.05;;;1.60;;
6452;SDS011;3259;51.080;13.712;2023-08-12T09:35:52;1.40;;;1.30;;
6452;SDS011;3259;51.080;13.712;2023-08-12T09:38:43;1.95;;;1.50;;
6452;SDS011;3259;51.080;13.712;2023-08-12T09:41:32;2.83;;;1.17;;
6452;SDS011;3259;51.080;13.712;2023-08-12T09:44:22;1.95;;;1.35;;
6452;SDS011;3259;51.080;13.712;2023-08-12T09:47:11;1.52;;;1.23;;
6452;SDS011;3259;51.080;13.712;2023-08-12T09:50:01;3.83;;;1.50;;
6452;SDS011;3259;51.080;13.712;2023-08-12T09:52:52;2.33;;;1.40;;
6452;SDS011;3259;51.080;13.712;2023-08-12T09:55:41;2.83;;;0.90;;
6452;SDS011;3259;51.080;13.712;2023-08-12T09:58:33;2.33;;;1.20;;
6452;SDS011;3259;51.080;13.712;2023-08-12T10:01:25;2.40;;;1.38;;
6452;SDS011;3259;51.080;13.712;2023-08-12T10:04:15;1.23;;;1.10;;
6452;SDS011;3259;51.080;13.712;2023-08-12T10:07:07;1.95;;;1.48;;
6452;SDS011;3259;51.080;13.712;2023-08-12T10:10:01;1.60;;;1.13;;
6452;SDS011;3259;51.080;13.712;2023-08-12T10:12:50;1.00;;;0.95;;
6452;SDS011;3259;51.080;13.712;2023-08-12T10:15:40;1.98;;;1.50;;
6452;SDS011;3259;51.080;13.712;2023-08-12T10:18:29;3.00;;;1.27;;
6452;SDS011;3259;51.080;13.712;2023-08-12T10:21:19;2.20;;;1.10;;
6452;SDS011;3259;51.080;13.712;2023-08-12T10:24:10;0.93;;;0.85;;
6452;SDS011;3259;51.080;13.712;2023-08-12T10:27:02;3.33;;;1.17;;
6452;SDS011;3259;51.080;13.712;2023-08-12T10:29:51;2.47;;;1.10;;
6452;SDS011;3259;51.080;13.712;2023-08-12T10:32:40;2.35;;;1.27;;
6452;SDS011;3259;51.080;13.712;2023-08-12T10:35:40;1.17;;;1.17;;
6452;SDS011;3259;51.080;13.712;2023-08-12T10:38:31;3.05;;;1.10;;
6452;SDS011;3259;51.080;13.712;2023-08-12T10:41:21;4.82;;;1.13;;
6452;SDS011;3259;51.080;13.712;2023-08-12T10:44:12;0.95;;;0.95;;
6452;SDS011;3259;51.080;13.712;2023-08-12T10:47:05;1.20;;;0.98;;
6452;SDS011;3259;51.080;13.712;2023-08-12T10:49:57;1.13;;;1.10;;
6452;SDS011;3259;51.080;13.712;2023-08-12T10:52:46;2.25;;;1.05;;
6452;SDS011;3259;51.080;13.712;2023-08-12T10:55:36;1.35;;;1.05;;
6452;SDS011;3259;51.080;13.712;2023-08-12T10:58:26;1.35;;;1.25;;
6452;SDS011;3259;51.080;13.712;2023-08-12T11:01:17;0.90;;;0.90;;
6452;SDS011;3259;51.080;13.712;2023-08-12T11:04:16;1.35;;;0.70;;
6452;SDS011;3259;51.080;13.712;2023-08-12T11:07:14;1.15;;;0.82;;
6452;SDS011;3259;51.080;13.712;2023-08-12T11:10:03;0.93;;;0.93;;
6452;SDS011;3259;51.080;13.712;2023-08-12T11:12:55;1.38;;;0.80;;
6452;SDS011;3259;51.080;13.712;2023-08-12T11:15:44;1.17;;;0.65;;
6452;SDS011;3259;51.080;13.712;2023-08-12T11:18:35;0.60;;;0.60;;
6452;SDS011;3259;51.080;13.712;2023-08-12T11:21:24;0.93;;;0.70;;
6452;SDS011;3259;51.080;13.712;2023-08-12T11:24:13;1.08;;;0.63;;
6452;SDS011;3259;51.080;13.712;2023-08-12T11:27:04;0.50;;;0.50;;
6452;SDS011;3259;51.080;13.712;2023-08-12T11:29:53;0.82;;;0.50;;
6452;SDS011;3259;51.080;13.712;2023-08-12T11:32:42;0.80;;;0.70;;
6452;SDS011;3259;51.080;13.712;2023-08-12T11:35:32;0.63;;;0.63;;
6452;SDS011;3259;51.080;13.712;2023-08-12T11:38:23;1.05;;;0.93;;
6452;SDS011;3259;51.080;13.712;2023-08-12T11:41:12;0.68;;;0.68;;
6452;SDS011;3259;51.080;13.712;2023-08-12T11:44:00;0.60;;;0.60;;
6452;SDS011;3259;51.080;13.712;2023-08-12T11:46:51;0.65;;;0.65;;
6452;SDS011;3259;51.080;13.712;2023-08-12T11:49:40;1.08;;;0.82;;
6452;SDS011;3259;51.080;13.712;2023-08-12T11:52:30;0.50;;;0.50;;
6452;SDS011;3259;51.080;13.712;2023-08-12T11:55:19;0.82;;;0.82;;
6452;SDS011;3259;51.080;13.712;2023-08-12T11:58:09;0.50;;;0.50;;
6452;SDS011;3259;51.080;13.712;2023-08-12T12:00:59;0.60;;;0.50;;
6452;SDS011;3259;51.080;13.712;2023-08-12T12:03:50;0.40;;;0.40;;
6452;SDS011;3259;51.080;13.712;2023-08-12T12:06:39;0.50;;;0.50;;
6452;SDS011;3259;51.080;13.712;2023-08-12T12:09:30;0.30;;;0.30;;
6452;SDS011;3259;51.080;13.712;2023-08-12T12:12:21;0.82;;;0.60;;
6452;SDS011;3259;51.080;13.712;2023-08-12T12:15:12;0.70;;;0.70;;
6452;SDS011;3259;51.080;13.712;2023-08-12T12:18:03;0.60;;;0.60;;
6452;SDS011;3259;51.080;13.712;2023-08-12T12:20:55;0.65;;;0.50;;
6452;SDS011;3259;51.080;13.712;2023-08-12T12:23:44;1.67;;;0.60;;
6452;SDS011;3259;51.080;13.712;2023-08-12T12:26:34;0.40;;;0.40;;
6452;SDS011;3259;51.080;13.712;2023-08-12T12:29:23;0.52;;;0.50;;
6452;SDS011;3259;51.080;13.712;2023-08-12T12:32:12;0.60;;;0.60;;
6452;SDS011;3259;51.080;13.712;2023-08-12T12:35:00;2.30;;;0.40;;
6452;SDS011;3259;51.080;13.712;2023-08-12T12:37:50;0.82;;;0.52;;
6452;SDS011;3259;51.080;13.712;2023-08-12T12:40:38;0.55;;;0.40;;
6452;SDS011;3259;51.080;13.712;2023-08-12T12:43:28;1.10;;;0.30;;
6452;SDS011;3259;51.080;13.712;2023-08-12T12:46:17;2.70;;;0.50;;
6452;SDS011;3259;51.080;13.712;2023-08-12T12:49:06;2.22;;;0.50;;
6452;SDS011;3259;51.080;13.712;2023-08-12T12:51:55;0.50;;;0.50;;
6452;SDS011;3259;51.080;13.712;2023-08-12T12:54:43;0.35;;;0.35;;
6452;SDS011;3259;51.080;13.712;2023-08-12T12:57:32;0.50;;;0.50;;
6452;SDS011;3259;51.080;13.712;2023-08-12T13:00:22;0.90;;;0.50;;
6452;SDS011;3259;51.080;13.712;2023-08-12T13:03:11;0.40;;;0.40;;
6452;SDS011;3259;51.080;13.712;2023-08-12T13:06:00;2.95;;;0.50;;
6452;SDS011;3259;51.080;13.712;2023-08-12T13:08:49;0.47;;;0.32;;
6452;SDS011;3259;51.080;13.712;2023-08-12T13:11:38;0.40;;;0.35;;
6452;SDS011;3259;51.080;13.712;2023-08-12T13:14:26;0.40;;;0.40;;
6452;SDS011;3259;51.080;13.712;2023-08-12T13:17:18;1.10;;;0.20;;
6452;SDS011;3259;51.080;13.712;2023-08-12T13:20:07;0.40;;;0.40;;
6452;SDS011;3259;51.080;13.712;2023-08-12T13:22:57;0.50;;;0.50;;
6452;SDS011;3259;51.080;13.712;2023-08-12T13:25:46;0.32;;;0.32;;
6452;SDS011;3259;51.080;13.712;2023-08-12T13:28:35;1.17;;;0.40;;
6452;SDS011;3259;51.080;13.712;2023-08-12T13:31:24;0.35;;;0.35;;
6452;SDS011;3259;51.080;13.712;2023-08-12T13:34:14;1.23;;;0.20;;
6452;SDS011;3259;51.080;13.712;2023-08-12T13:37:04;1.70;;;0.25;;
6452;SDS011;3259;51.080;13.712;2023-08-12T13:39:52;0.45;;;0.40;;
6452;SDS011;3259;51.080;13.712;2023-08-12T13:42:41;0.30;;;0.30;;
6452;SDS011;3259;51.080;13.712;2023-08-12T13:45:30;0.25;;;0.25;;
6452;SDS011;3259;51.080;13.712;2023-08-12T13:48:19;0.82;;;0.35;;
6452;SDS011;3259;51.080;13.712;2023-08-12T13:51:09;0.68;;;0.43;;
6452;SDS011;3259;51.080;13.712;2023-08-12T13:53:58;0.22;;;0.22;;
6452;SDS011;3259;51.080;13.712;2023-08-12T13:56:47;0.65;;;0.20;;
6452;SDS011;3259;51.080;13.712;2023-08-12T13:59:36;0.32;;;0.30;;
6452;SDS011;3259;51.080;13.712;2023-08-12T14:02:24;0.30;;;0.25;;
6452;SDS011;3259;51.080;13.712;2023-08-12T14:05:13;0.88;;;0.38;;
6452;SDS011;3259;51.080;13.712;2023-08-12T14:08:04;0.75;;;0.57;;
6452;SDS011;3259;51.080;13.712;2023-08-12T14:10:53;0.43;;;0.35;;
6452;SDS011;3259;51.080;13.712;2023-08-12T14:13:42;0.30;;;0.30;;
6452;SDS011;3259;51.080;13.712;2023-08-12T14:16:31;0.30;;;0.30;;
6452;SDS011;3259;51.080;13.712;2023-08-12T14:19:20;0.20;;;0.20;;
6452;SDS011;3259;51.080;13.712;2023-08-12T14:22:09;0.25;;;0.25;;
6452;SDS011;3259;51.080;13.712;2023-08-12T14:24:59;0.30;;;0.30;;
6452;SDS011;3259;51.080;13.712;2023-08-12T14:27:51;0.47;;;0.25;;
6452;SDS011;3259;51.080;13.712;2023-08-12T14:30:40;0.35;;;0.35;;
6452;SDS011;3259;51.080;13.712;2023-08-12T14:33:29;0.28;;;0.28;;
6452;SDS011;3259;51.080;13.712;2023-08-12T14:36:19;2.55;;;0.28;;
6452;SDS011;3259;51.080;13.712;2023-08-12T14:39:08;0.15;;;0.15;;
6452;SDS011;3259;51.080;13.712;2023-08-12T14:41:59;0.32;;;0.30;;
6452;SDS011;3259;51.080;13.712;2023-08-12T14:44:49;0.20;;;0.20;;
6452;SDS011;3259;51.080;13.712;2023-08-12T14:47:38;0.30;;;0.30;;
6452;SDS011;3259;51.080;13.712;2023-08-12T14:50:27;1.00;;;0.30;;
6452;SDS011;3259;51.080;13.712;2023-08-12T14:53:18;0.30;;;0.10;;
6452;SDS011;3259;51.080;13.712;2023-08-12T14:56:07;0.20;;;0.20;;
6452;SDS011;3259;51.080;13.712;2023-08-12T14:58:58;0.20;;;0.20;;
6452;SDS011;3259;51.080;13.712;2023-08-12T15:01:46;0.50;;;0.50;;
6452;SDS011;3259;51.080;13.712;2023-08-12T15:04:35;0.13;;;0.13;;
6452;SDS011;3259;51.080;13.712;2023-08-12T15:07:26;1.00;;;0.30;;
6452;SDS011;3259;51.080;13.712;2023-08-12T15:10:15;0.40;;;0.30;;
6452;SDS011;3259;51.080;13.712;2023-08-12T15:13:03;0.28;;;0.22;;
6452;SDS011;3259;51.080;13.712;2023-08-12T15:15:54;0.50;;;0.20;;
6452;SDS011;3259;51.080;13.712;2023-08-12T15:18:43;0.40;;;0.40;;
6452;SDS011;3259;51.080;13.712;2023-08-12T15:21:32;1.67;;;0.30;;
6452;SDS011;3259;51.080;13.712;2023-08-12T15:24:20;1.58;;;0.20;;
6452;SDS011;3259;51.080;13.712;2023-08-12T15:27:09;0.60;;;0.25;;
6452;SDS011;3259;51.080;13.712;2023-08-12T15:29:58;0.82;;;0.35;;
6452;SDS011;3259;51.080;13.712;2023-08-12T15:32:50;0.13;;;0.13;;
6452;SDS011;3259;51.080;13.712;2023-08-12T15:35:39;0.20;;;0.20;;
6452;SDS011;3259;51.080;13.712;2023-08-12T15:38:27;0.20;;;0.20;;
6452;SDS011;3259;51.080;13.712;2023-08-12T15:41:16;0.80;;;0.30;;
6452;SDS011;3259;51.080;13.712;2023-08-12T15:44:05;1.20;;;0.30;;
6452;SDS011;3259;51.080;13.712;2023-08-12T15:46:54;0.20;;;0.20;;
6452;SDS011;3259;51.080;13.712;2023-08-12T15:49:47;0.43;;;0.40;;
6452;SDS011;3259;51.080;13.712;2023-08-12T15:52:35;0.25;;;0.20;;
6452;SDS011;3259;51.080;13.712;2023-08-12T15:55:24;0.25;;;0.20;;
6452;SDS011;3259;51.080;13.712;2023-08-12T15:58:13;2.75;;;0.20;;
6452;SDS011;3259;51.080;13.712;2023-08-12T16:01:05;1.50;;;0.40;;
6452;SDS011;3259;51.080;13.712;2023-08-12T16:03:54;0.85;;;0.20;;
6452;SDS011;3259;51.080;13.712;2023-08-12T16:06:44;0.10;;;0.10;;
6452;SDS011;3259;51.080;13.712;2023-08-12T16:09:33;0.55;;;0.50;;
6452;SDS011;3259;51.080;13.712;2023-08-12T16:12:22;0.20;;;0.20;;
6452;SDS011;3259;51.080;13.712;2023-08-12T16:15:11;0.30;;;0.10;;
6452;SDS011;3259;51.080;13.712;2023-08-12T16:17:59;0.98;;;0.20;;
6452;SDS011;3259;51.080;13.712;2023-08-12T16:20:48;0.20;;;0.20;;
6452;SDS011;3259;51.080;13.712;2023-08-12T16:23:38;1.48;;;0.40;;
6452;SDS011;3259;51.080;13.712;2023-08-12T16:26:27;0.68;;;0.30;;
6452;SDS011;3259;51.080;13.712;2023-08-12T16:29:16;0.45;;;0.40;;
6452;SDS011;3259;51.080;13.712;2023-08-12T16:32:05;0.20;;;0.20;;
6452;SDS011;3259;51.080;13.712;2023-08-12T16:34:54;4.28;;;0.52;;
6452;SDS011;3259;51.080;13.712;2023-08-12T16:37:43;0.30;;;0.20;;
6452;SDS011;3259;51.080;13.712;2023-08-12T16:40:33;0.10;;;0.10;;
6452;SDS011;3259;51.080;13.712;2023-08-12T16:43:22;1.75;;;0.30;;
6452;SDS011;3259;51.080;13.712;2023-08-12T16:46:11;0.20;;;0.20;;
6452;SDS011;3259;51.080;13.712;2023-08-12T16:49:00;0.40;;;0.40;;
6452;SDS011;3259;51.080;13.712;2023-08-12T16:51:48;0.20;;;0.20;;
6452;SDS011;3259;51.080;13.712;2023-08-12T16:54:37;0.70;;;0.20;;
6452;SDS011;3259;51.080;13.712;2023-08-12T16:57:27;0.52;;;0.10;;
6452;SDS011;3259;51.080;13.712;2023-08-12T17:00:16;0.10;;;0.10;;
6452;SDS011;3259;51.080;13.712;2023-08-12T17:03:05;1.45;;;0.20;;
6452;SDS011;3259;51.080;13.712;2023-08-12T17:05:54;0.25;;;0.25;;
6452;SDS011;3259;51.080;13.712;2023-08-12T17:08:43;0.30;;;0.20;;
6452;SDS011;3259;51.080;13.712;2023-08-12T17:11:31;0.10;;;0.10;;
6452;SDS011;3259;51.080;13.712;2023-08-12T17:14:21;0.13;;;0.13;;
6452;SDS011;3259;51.080;13.712;2023-08-12T17:17:10;0.20;;;0.20;;
6452;SDS011;3259;51.080;13.712;2023-08-12T17:19:59;0.20;;;0.20;;